createdAt,value
2022-11-29T00:01:40.942Z,-1.23
2022-11-29T00:04:11.452Z,-1.23
2022-11-29T00:06:40.147Z,-1.25
2022-11-29T00:09:11.784Z,-1.27
2022-11-29T00:12:00.672Z,-1.27
2022-11-29T00:14:29.429Z,-1.27
2022-11-29T00:17:02.405Z,-1.25
2022-11-29T00:19:32.576Z,-1.22
2022-11-29T00:22:01.864Z,-1.19
2022-11-29T00:24:32.524Z,-1.18
2022-11-29T00:27:04.161Z,-1.17
2022-11-29T00:29:34.539Z,-1.15
2022-11-29T00:32:02.839Z,-1.15
2022-11-29T00:34:31.380Z,-1.16
2022-11-29T00:36:59.514Z,-1.19
2022-11-29T00:39:27.674Z,-1.22
2022-11-29T00:41:56.083Z,-1.23
2022-11-29T00:44:24.187Z,-1.22
2022-11-29T00:46:52.302Z,-1.23
2022-11-29T00:49:20.582Z,-1.22
2022-11-29T00:51:48.861Z,-1.21
2022-11-29T00:54:17.388Z,-1.20
2022-11-29T00:56:45.914Z,-1.20
2022-11-29T00:59:14.239Z,-1.18
2022-11-29T01:01:45.618Z,-1.19
2022-11-29T01:04:14.141Z,-1.18
2022-11-29T01:06:42.654Z,-1.18
2022-11-29T01:09:10.888Z,-1.16
2022-11-29T01:11:39.250Z,-1.16
2022-11-29T01:14:07.313Z,-1.17
2022-11-29T01:16:35.438Z,-1.15
2022-11-29T01:19:04.130Z,-1.12
2022-11-29T01:21:32.195Z,-1.12
2022-11-29T01:24:01.536Z,-1.12
2022-11-29T01:26:31.097Z,-1.16
2022-11-29T01:28:59.745Z,-1.20
2022-11-29T01:31:32.258Z,-1.22
2022-11-29T01:34:02.606Z,-1.25
2022-11-29T01:36:31.409Z,-1.28
2022-11-29T01:39:05.055Z,-1.32
2022-11-29T01:41:35.472Z,-1.36
2022-11-29T01:44:03.777Z,-1.35
2022-11-29T01:46:37.713Z,-1.35
2022-11-29T01:49:13.938Z,-1.34
2022-11-29T01:51:48.725Z,-1.34
2022-11-29T01:54:17.773Z,-1.39
2022-11-29T01:56:48.775Z,-1.42
2022-11-29T01:59:21.005Z,-1.42
2022-11-29T02:03:16.784Z,-1.40
2022-11-29T02:05:49.551Z,-1.41
2022-11-29T02:08:26.962Z,-1.42
2022-11-29T02:11:13.669Z,-1.42
2022-11-29T02:14:00.154Z,-1.41
2022-11-29T02:16:31.389Z,-1.41
2022-11-29T02:19:26.785Z,-1.44
2022-11-29T02:22:11.078Z,-1.46
2022-11-29T02:25:28.439Z,-1.48
2022-11-29T02:28:20.738Z,-1.46
2022-11-29T02:31:11.781Z,-1.44
2022-11-29T02:33:58.048Z,-1.38
2022-11-29T02:36:51.646Z,-1.32
2022-11-29T02:39:46.006Z,-1.30
2022-11-29T02:42:55.732Z,-1.29
2022-11-29T02:45:24.821Z,-1.31
2022-11-29T02:48:17.285Z,-1.34
2022-11-29T02:50:55.615Z,-1.37
2022-11-29T02:53:37.203Z,-1.42
2022-11-29T02:56:15.654Z,-1.47
2022-11-29T02:58:48.685Z,-1.48
2022-11-29T03:01:37.606Z,-1.49
2022-11-29T03:04:30.816Z,-1.48
2022-11-29T03:07:17.874Z,-1.49
2022-11-29T03:10:29.541Z,-1.46
2022-11-29T03:13:00.136Z,-1.45
2022-11-29T03:15:34.605Z,-1.43
2022-11-29T03:18:24.937Z,-1.45
2022-11-29T03:21:23.081Z,-1.45
2022-11-29T03:23:55.287Z,-1.42
2022-11-29T03:26:35.679Z,-1.39
2022-11-29T03:29:50.700Z,-1.40
2022-11-29T03:32:30.797Z,-1.42
2022-11-29T03:35:15.064Z,-1.43
2022-11-29T03:38:13.724Z,-1.42
2022-11-29T03:49:49.326Z,-1.36
2022-11-29T03:52:43.498Z,-1.36
2022-11-29T03:55:33.328Z,-1.34
2022-11-29T03:58:36.457Z,-1.33
2022-11-29T04:01:52.441Z,-1.29
2022-11-29T04:04:56.114Z,-1.30
2022-11-29T04:07:44.566Z,-1.35
2022-11-29T04:10:18.495Z,-1.42
2022-11-29T04:12:57.646Z,-1.51
2022-11-29T04:15:52.710Z,-1.57
2022-11-29T04:18:36.440Z,-1.61
2022-11-29T04:21:27.105Z,-1.60
2022-11-29T04:24:02.295Z,-1.58
2022-11-29T04:26:52.167Z,-1.57
2022-11-29T04:29:38.262Z,-1.56
2022-11-29T04:32:47.864Z,-1.50
2022-11-29T04:35:39.320Z,-1.46
2022-11-29T04:38:19.290Z,-1.43
2022-11-29T04:41:05.466Z,-1.43
2022-11-29T04:43:51.853Z,-1.40
2022-11-29T04:46:46.432Z,-1.40
2022-11-29T04:49:36.456Z,-1.42
2022-11-29T04:52:06.493Z,-1.40
2022-11-29T04:54:40.205Z,-1.41
2022-11-29T04:57:35.794Z,-1.41
2022-11-29T05:00:11.304Z,-1.38
2022-11-29T05:02:51.150Z,-1.36
2022-11-29T05:05:51.449Z,-1.35
2022-11-29T05:08:45.714Z,-1.32
2022-11-29T05:11:34.875Z,-1.31
2022-11-29T05:14:09.001Z,-1.30
2022-11-29T05:16:48.142Z,-1.30
2022-11-29T05:19:25.479Z,-1.34
2022-11-29T05:22:19.925Z,-1.34
2022-11-29T05:25:25.626Z,-1.33
2022-11-29T05:28:50.059Z,-1.35
2022-11-29T05:31:33.428Z,-1.34
2022-11-29T05:34:39.130Z,-1.31
2022-11-29T05:37:19.179Z,-1.30
2022-11-29T05:40:04.244Z,-1.32
2022-11-29T05:42:58.818Z,-1.35
2022-11-29T05:45:57.735Z,-1.38
2022-11-29T05:48:46.017Z,-1.38
2022-11-29T05:51:27.774Z,-1.37
2022-11-29T05:54:25.015Z,-1.35
2022-11-29T05:57:10.852Z,-1.28
2022-11-29T05:59:40.452Z,-1.25
2022-11-29T06:02:27.040Z,-1.29
2022-11-29T06:05:06.825Z,-1.34
2022-11-29T06:08:07.494Z,-1.38
2022-11-29T06:10:40.198Z,-1.39
2022-11-29T06:13:26.289Z,-1.42
2022-11-29T06:16:14.326Z,-1.45
2022-11-29T06:19:00.377Z,-1.46
2022-11-29T06:21:40.299Z,-1.43
2022-11-29T06:24:25.965Z,-1.42
2022-11-29T06:27:29.685Z,-1.39
2022-11-29T06:30:09.300Z,-1.38
2022-11-29T06:32:50.572Z,-1.37
2022-11-29T06:35:18.474Z,-1.38
2022-11-29T06:37:51.896Z,-1.39
2022-11-29T06:40:20.260Z,-1.36
2022-11-29T06:42:49.059Z,-1.35
2022-11-29T06:45:17.559Z,-1.31
2022-11-29T06:48:06.907Z,-1.31
2022-11-29T06:51:08.671Z,-1.31
2022-11-29T06:53:45.464Z,-1.33
2022-11-29T06:56:40.718Z,-1.35
2022-11-29T06:59:23.816Z,-1.36
2022-11-29T07:02:00.378Z,-1.37
2022-11-29T07:04:46.618Z,-1.34
2022-11-29T07:07:19.487Z,-1.31
2022-11-29T07:09:53.312Z,-1.29
2022-11-29T07:12:22.184Z,-1.26
2022-11-29T07:14:50.870Z,-1.27
2022-11-29T07:17:36.991Z,-1.29
2022-11-29T07:20:23.771Z,-1.29
2022-11-29T07:23:02.324Z,-1.29
2022-11-29T07:26:03.434Z,-1.28
2022-11-29T07:29:07.002Z,-1.26
2022-11-29T07:31:41.498Z,-1.25
2022-11-29T07:34:27.981Z,-1.23
2022-11-29T07:37:14.354Z,-1.19
2022-11-29T07:39:52.182Z,-1.15
2022-11-29T07:42:32.260Z,-1.13
2022-11-29T07:45:15.369Z,-1.10
2022-11-29T07:47:43.953Z,-1.09
2022-11-29T07:50:13.921Z,-1.11
2022-11-29T07:52:42.425Z,-1.12
2022-11-29T07:55:19.452Z,-1.14
2022-11-29T07:57:48.938Z,-1.12
2022-11-29T08:00:18.423Z,-1.10
2022-11-29T08:02:48.915Z,-1.07
2022-11-29T08:05:17.867Z,-1.04
2022-11-29T08:07:47.782Z,-1.00
2022-11-29T08:10:17.151Z,-0.95
2022-11-29T08:12:48.776Z,-0.91
2022-11-29T08:15:21.725Z,-0.87
2022-11-29T08:17:50.720Z,-0.89
2022-11-29T08:20:19.449Z,-0.94
2022-11-29T08:22:58.637Z,-0.95
2022-11-29T08:25:28.370Z,-0.94
2022-11-29T08:27:56.631Z,-0.92
2022-11-29T08:30:25.048Z,-0.91
2022-11-29T08:32:53.358Z,-0.92
2022-11-29T08:35:22.897Z,-0.90
2022-11-29T08:37:51.451Z,-0.90
2022-11-29T08:40:19.791Z,-0.89
2022-11-29T08:42:48.061Z,-0.85
2022-11-29T08:45:16.658Z,-0.84
2022-11-29T08:47:44.786Z,-0.83
2022-11-29T08:50:16.273Z,-0.83
2022-11-29T08:53:08.786Z,-0.83
2022-11-29T08:55:43.155Z,-0.83
2022-11-29T08:58:15.049Z,-0.81
2022-11-29T09:00:45.689Z,-0.76
2022-11-29T09:03:32.839Z,-0.69
2022-11-29T09:06:12.972Z,-0.65
2022-11-29T09:08:45.541Z,-0.60
2022-11-29T09:11:19.961Z,-0.54
2022-11-29T09:13:52.568Z,-0.54
2022-11-29T09:16:25.328Z,-0.53
2022-11-29T09:18:55.931Z,-0.53
2022-11-29T09:21:26.078Z,-0.53
2022-11-29T09:23:59.378Z,-0.53
2022-11-29T09:26:31.228Z,-0.49
2022-11-29T09:29:01.476Z,-0.48
2022-11-29T09:31:31.639Z,-0.49
2022-11-29T09:33:59.964Z,-0.49
2022-11-29T09:36:30.368Z,-0.48
2022-11-29T09:39:05.197Z,-0.47
2022-11-29T09:42:11.660Z,-0.44
2022-11-29T09:44:53.735Z,-0.36
2022-11-29T09:47:37.631Z,-0.30
2022-11-29T09:50:19.025Z,-0.30
2022-11-29T09:52:59.547Z,-0.33
2022-11-29T09:55:46.606Z,-0.39
2022-11-29T09:58:23.407Z,-0.44
2022-11-29T10:00:58.621Z,-0.45
2022-11-29T10:03:32.354Z,-0.43
2022-11-29T10:06:18.839Z,-0.39
2022-11-29T10:09:06.864Z,-0.36
2022-11-29T10:11:37.313Z,-0.35
2022-11-29T10:14:16.622Z,-0.35
2022-11-29T10:16:52.477Z,-0.34
2022-11-29T10:19:48.417Z,-0.32
2022-11-29T10:22:45.157Z,-0.31
2022-11-29T10:25:25.391Z,-0.24
2022-11-29T10:27:54.622Z,-0.21
2022-11-29T10:30:22.770Z,-0.21
2022-11-29T10:33:00.800Z,-0.22
2022-11-29T10:35:29.670Z,-0.20
2022-11-29T10:41:07.094Z,-0.11
2022-11-29T10:43:37.516Z,-0.08
2022-11-29T10:46:11.952Z,-0.08
2022-11-29T10:48:40.759Z,-0.09
2022-11-29T10:51:17.680Z,-0.10
2022-11-29T10:53:46.723Z,-0.11
2022-11-29T10:56:29.563Z,-0.11
2022-11-29T10:59:05.067Z,-0.06
2022-11-29T11:01:38.381Z,-0.05
2022-11-29T11:04:14.263Z,-0.01
2022-11-29T11:06:45.807Z,0.03
2022-11-29T11:09:22.235Z,0.07
2022-11-29T11:11:58.818Z,0.12
2022-11-29T11:14:37.611Z,0.13
2022-11-29T11:17:21.186Z,0.16
2022-11-29T11:20:04.735Z,0.21
2022-11-29T11:22:34.312Z,0.25
2022-11-29T11:25:25.614Z,0.27
2022-11-29T11:27:54.580Z,0.32
2022-11-29T11:30:25.878Z,0.29
2022-11-29T11:33:06.828Z,0.25
2022-11-29T11:35:37.296Z,0.27
2022-11-29T11:38:05.472Z,0.29
2022-11-29T11:40:35.998Z,0.30
2022-11-29T11:43:04.336Z,0.33
2022-11-29T11:45:35.643Z,0.33
2022-11-29T11:48:21.928Z,0.32
2022-11-29T11:50:53.847Z,0.32
2022-11-29T11:53:33.988Z,0.37
2022-11-29T11:56:06.623Z,0.40
2022-11-29T11:58:39.819Z,0.42
2022-11-29T12:01:30.805Z,0.43
2022-11-29T12:04:11.743Z,0.41
2022-11-29T12:06:57.449Z,0.39
2022-11-29T12:09:28.701Z,0.35
2022-11-29T12:12:02.354Z,0.30
2022-11-29T12:14:45.111Z,0.25
2022-11-29T12:17:40.783Z,0.24
2022-11-29T12:20:26.910Z,0.24
2022-11-29T12:23:13.842Z,0.25
2022-11-29T12:26:58.023Z,0.21
2022-11-29T12:29:31.613Z,0.16
2022-11-29T12:32:05.612Z,0.11
2022-11-29T12:34:53.789Z,0.08
2022-11-29T12:37:32.583Z,0.09
2022-11-29T12:40:13.632Z,0.14
2022-11-29T12:43:13.728Z,0.18
2022-11-29T12:46:01.478Z,0.22
2022-11-29T12:48:44.555Z,0.23
2022-11-29T12:51:41.193Z,0.23
2022-11-29T12:54:27.345Z,0.24
2022-11-29T12:57:15.321Z,0.21
2022-11-29T12:59:54.852Z,0.17
2022-11-29T13:02:23.779Z,0.17
2022-11-29T13:04:59.908Z,0.18
2022-11-29T13:07:53.024Z,0.18
2022-11-29T13:10:27.405Z,0.20
2022-11-29T13:12:57.366Z,0.18
2022-11-29T13:15:43.564Z,0.18
2022-11-29T13:18:23.211Z,0.17
2022-11-29T13:20:55.915Z,0.16
2022-11-29T13:24:07.185Z,0.13
2022-11-29T13:26:30.420Z,0.14
2022-11-29T13:28:59.505Z,0.15
2022-11-29T13:31:28.228Z,0.13
2022-11-29T13:34:15.340Z,0.13
2022-11-29T13:36:57.949Z,0.12
2022-11-29T13:39:38.403Z,0.12
2022-11-29T13:42:19.269Z,0.09
2022-11-29T13:44:55.916Z,0.05
2022-11-29T13:47:24.376Z,0.03
2022-11-29T13:50:07.437Z,0.03
2022-11-29T13:52:38.664Z,0.04
2022-11-29T13:55:12.852Z,0.05
2022-11-29T13:58:15.006Z,0.07
2022-11-29T14:00:39.921Z,0.09
2022-11-29T14:03:23.366Z,0.10
2022-11-29T14:06:12.076Z,0.06
2022-11-29T14:09:17.823Z,0.01
2022-11-29T14:11:51.839Z,-0.07
2022-11-29T14:14:26.020Z,-0.10
2022-11-29T14:17:03.618Z,-0.10
2022-11-29T14:19:34.555Z,-0.14
2022-11-29T14:22:02.803Z,-0.18
2022-11-29T14:24:37.366Z,-0.20
2022-11-29T14:27:10.006Z,-0.20
2022-11-29T14:29:50.358Z,-0.20
2022-11-29T14:32:45.788Z,-0.21
2022-11-29T14:35:35.541Z,-0.23
2022-11-29T14:38:16.143Z,-0.24
2022-11-29T14:40:57.303Z,-0.25
2022-11-29T14:43:41.609Z,-0.26
2022-11-29T14:46:16.037Z,-0.26
2022-11-29T14:48:59.960Z,-0.24
2022-11-29T14:51:32.295Z,-0.24
2022-11-29T14:54:22.977Z,-0.25
2022-11-29T14:56:59.828Z,-0.26
2022-11-29T15:03:11.144Z,-0.30
2022-11-29T15:06:24.709Z,-0.28
2022-11-29T15:09:06.390Z,-0.26
2022-11-29T15:11:50.594Z,-0.21
2022-11-29T15:14:44.072Z,-0.17
2022-11-29T15:17:27.714Z,-0.16
2022-11-29T15:20:42.504Z,-0.15
2022-11-29T15:23:19.430Z,-0.15
2022-11-29T15:25:48.828Z,-0.14
2022-11-29T15:28:30.538Z,-0.15
2022-11-29T15:31:08.015Z,-0.16
2022-11-29T15:33:40.691Z,-0.15
2022-11-29T15:36:22.051Z,-0.13
2022-11-29T15:38:51.611Z,-0.09
2022-11-29T15:41:26.702Z,-0.06
2022-11-29T15:44:00.201Z,-0.05
2022-11-29T15:46:31.404Z,-0.06
2022-11-29T15:49:23.819Z,-0.08
2022-11-29T15:52:11.111Z,-0.10
2022-11-29T15:54:44.016Z,-0.13
2022-11-29T15:57:19.918Z,-0.16
2022-11-29T15:59:58.735Z,-0.19
2022-11-29T16:02:27.877Z,-0.22
2022-11-29T16:04:59.899Z,-0.24
2022-11-29T16:07:32.814Z,-0.26
2022-11-29T16:10:13.012Z,-0.27
2022-11-29T16:13:22.595Z,-0.30
2022-11-29T16:16:09.465Z,-0.33
2022-11-29T16:18:41.249Z,-0.39
2022-11-29T16:21:29.477Z,-0.40
2022-11-29T16:23:58.658Z,-0.39
2022-11-29T16:26:34.553Z,-0.39
2022-11-29T16:29:03.633Z,-0.39
2022-11-29T16:31:37.919Z,-0.35
2022-11-29T16:34:09.366Z,-0.36
2022-11-29T16:36:37.818Z,-0.38
2022-11-29T16:39:16.642Z,-0.41
2022-11-29T16:42:25.907Z,-0.40
2022-11-29T16:45:04.065Z,-0.35
2022-11-29T16:47:47.379Z,-0.35
2022-11-29T16:50:22.196Z,-0.33
2022-11-29T16:52:56.059Z,-0.32
2022-11-29T16:55:25.102Z,-0.33
2022-11-29T16:57:54.722Z,-0.34
2022-11-29T17:00:33.780Z,-0.34
2022-11-29T17:03:12.487Z,-0.39
2022-11-29T17:05:44.718Z,-0.43
2022-11-29T17:08:13.198Z,-0.47
2022-11-29T17:10:41.633Z,-0.49
2022-11-29T17:13:11.319Z,-0.49
2022-11-29T17:15:39.710Z,-0.49
2022-11-29T17:18:08.274Z,-0.50
2022-11-29T17:20:36.418Z,-0.52
2022-11-29T17:23:04.748Z,-0.53
2022-11-29T17:25:33.812Z,-0.52
2022-11-29T17:28:02.571Z,-0.55
2022-11-29T17:30:31.825Z,-0.55
2022-11-29T17:33:00.309Z,-0.56
2022-11-29T17:35:31.518Z,-0.57
2022-11-29T17:37:59.863Z,-0.60
2022-11-29T17:40:28.282Z,-0.59
2022-11-29T17:42:56.580Z,-0.61
2022-11-29T17:45:25.063Z,-0.64
2022-11-29T17:47:55.475Z,-0.68
2022-11-29T17:50:23.494Z,-0.70
2022-11-29T17:52:51.780Z,-0.72
2022-11-29T17:55:20.916Z,-0.74
2022-11-29T17:57:49.471Z,-0.73
2022-11-29T18:00:18.670Z,-0.73
2022-11-29T18:02:46.928Z,-0.72
2022-11-29T18:05:15.233Z,-0.72
2022-11-29T18:07:58.192Z,-0.72
2022-11-29T18:10:28.209Z,-0.71
2022-11-29T18:12:56.564Z,-0.72
2022-11-29T18:15:24.855Z,-0.72
2022-11-29T18:17:53.137Z,-0.70
2022-11-29T18:20:21.317Z,-0.67
2022-11-29T18:22:49.712Z,-0.63
2022-11-29T18:25:38.070Z,-0.62
2022-11-29T18:28:08.033Z,-0.63
2022-11-29T18:30:36.360Z,-0.66
2022-11-29T18:33:04.596Z,-0.68
2022-11-29T18:35:33.222Z,-0.71
2022-11-29T18:38:17.019Z,-0.70
2022-11-29T18:40:46.019Z,-0.70
2022-11-29T18:43:16.207Z,-0.70
2022-11-29T18:45:44.516Z,-0.69
2022-11-29T18:48:13.068Z,-0.67
2022-11-29T18:50:41.567Z,-0.66
2022-11-29T18:53:09.638Z,-0.63
2022-11-29T18:55:38.171Z,-0.62
2022-11-29T18:58:08.015Z,-0.62
2022-11-29T19:00:36.129Z,-0.60
2022-11-29T19:03:04.410Z,-0.59
2022-11-29T19:05:32.594Z,-0.59
2022-11-29T19:08:00.716Z,-0.64
2022-11-29T19:10:29.138Z,-0.66
2022-11-29T19:12:57.313Z,-0.69
2022-11-29T19:15:25.484Z,-0.69
2022-11-29T19:17:54.283Z,-0.71
2022-11-29T19:20:22.330Z,-0.73
2022-11-29T19:22:50.467Z,-0.74
2022-11-29T19:25:18.741Z,-0.76
2022-11-29T19:27:47.374Z,-0.75
2022-11-29T19:30:17.492Z,-0.73
2022-11-29T19:32:45.910Z,-0.69
2022-11-29T19:35:14.181Z,-0.70
2022-11-29T19:37:42.291Z,-0.67
2022-11-29T19:40:10.981Z,-0.65
2022-11-29T19:42:39.191Z,-0.63
2022-11-29T19:45:17.173Z,-0.67
2022-11-29T19:47:46.586Z,-0.70
2022-11-29T19:50:14.657Z,-0.70
2022-11-29T19:52:42.736Z,-0.70
2022-11-29T19:55:11.085Z,-0.71
2022-11-29T19:57:40.424Z,-0.72
2022-11-29T20:00:09.212Z,-0.73
2022-11-29T20:02:40.242Z,-0.73
2022-11-29T20:05:09.085Z,-0.75
2022-11-29T20:07:37.249Z,-0.78
2022-11-29T20:10:08.158Z,-0.83
2022-11-29T20:12:36.267Z,-0.86
2022-11-29T20:15:04.933Z,-0.85
2022-11-29T20:17:33.583Z,-0.83
2022-11-29T20:20:01.681Z,-0.82
2022-11-29T20:22:29.825Z,-0.81
2022-11-29T20:24:58.154Z,-0.75
2022-11-29T20:27:26.229Z,-0.70
2022-11-29T20:29:54.701Z,-0.68
2022-11-29T20:32:23.355Z,-0.67
2022-11-29T20:34:51.704Z,-0.67
2022-11-29T20:37:37.779Z,-0.67
2022-11-29T20:40:16.863Z,-0.67
2022-11-29T20:42:58.746Z,-0.67
2022-11-29T20:45:27.403Z,-0.69
2022-11-29T20:48:13.170Z,-0.73
2022-11-29T20:50:44.858Z,-0.73
2022-11-29T20:53:31.811Z,-0.74
2022-11-29T20:56:00.524Z,-0.80
2022-11-29T20:58:29.016Z,-0.82
2022-11-29T21:00:57.754Z,-0.86
2022-11-29T21:03:28.174Z,-0.91
2022-11-29T21:05:57.756Z,-0.98
2022-11-29T21:08:26.876Z,-1.01
2022-11-29T21:11:07.839Z,-1.00
2022-11-29T21:13:36.533Z,-0.99
2022-11-29T21:16:07.449Z,-0.98
2022-11-29T21:18:35.935Z,-0.97
2022-11-29T21:21:24.985Z,-0.94
2022-11-29T21:24:00.264Z,-0.89
2022-11-29T21:26:42.480Z,-0.88
2022-11-29T21:29:16.848Z,-0.92
2022-11-29T21:31:47.689Z,-0.95
2022-11-29T21:34:15.995Z,-0.99
2022-11-29T21:36:45.055Z,-1.04
2022-11-29T21:39:16.475Z,-1.05
2022-11-29T21:41:45.300Z,-1.04
2022-11-29T21:44:13.425Z,-1.03
2022-11-29T21:46:41.786Z,-1.02
2022-11-29T21:49:12.950Z,-1.00
2022-11-29T21:51:41.161Z,-1.00
2022-11-29T21:54:09.399Z,-1.01
2022-11-29T21:56:37.642Z,-1.02
2022-11-29T21:59:06.487Z,-1.04
2022-11-29T22:01:35.327Z,-1.03
2022-11-29T22:04:05.406Z,-1.04
2022-11-29T22:06:33.531Z,-1.02
2022-11-29T22:09:01.891Z,-0.97
2022-11-29T22:11:31.017Z,-0.94
2022-11-29T22:14:13.914Z,-0.91
2022-11-29T22:16:43.427Z,-0.87
2022-11-29T22:19:12.835Z,-0.86
2022-11-29T22:21:42.773Z,-0.86
2022-11-29T22:24:12.683Z,-0.84
2022-11-29T22:26:42.719Z,-0.83
2022-11-29T22:29:14.269Z,-0.81
2022-11-29T22:31:43.920Z,-0.83
2022-11-29T22:34:12.547Z,-0.86
2022-11-29T22:36:41.507Z,-0.86
2022-11-29T22:39:12.756Z,-0.85
2022-11-29T22:41:41.772Z,-0.85
2022-11-29T22:44:10.232Z,-0.85
2022-11-29T22:46:41.214Z,-0.86
2022-11-29T22:49:09.668Z,-0.89
2022-11-29T22:51:38.833Z,-0.94
2022-11-29T22:54:11.773Z,-0.99
2022-11-29T22:56:44.853Z,-1.02
2022-11-29T22:59:13.499Z,-1.03
2022-11-29T23:01:42.535Z,-1.06
2022-11-29T23:04:12.715Z,-1.07
2022-11-29T23:06:43.350Z,-1.06
2022-11-29T23:09:17.503Z,-1.03
2022-11-29T23:11:46.590Z,-1.00
2022-11-29T23:14:14.870Z,-0.97
2022-11-29T23:16:43.212Z,-0.94
2022-11-29T23:19:12.069Z,-0.94
2022-11-29T23:21:41.208Z,-0.99
2022-11-29T23:24:09.647Z,-1.06
2022-11-29T23:26:40.492Z,-1.10
2022-11-29T23:29:11.940Z,-1.12
2022-11-29T23:31:40.707Z,-1.15
2022-11-29T23:34:09.147Z,-1.16
2022-11-29T23:36:37.447Z,-1.12
2022-11-29T23:39:06.812Z,-1.09
2022-11-29T23:41:36.622Z,-1.08
2022-11-29T23:44:06.604Z,-1.05
2022-11-29T23:46:35.448Z,-1.05
2022-11-29T23:49:03.903Z,-1.08
2022-11-29T23:51:33.798Z,-1.12
2022-11-29T23:54:01.982Z,-1.12
2022-11-29T23:56:35.475Z,-1.16
2022-11-29T23:59:03.901Z,-1.21
